Time;durP1;ratioP1;P1;durP2;ratioP2;P2;SDS_P1;SDS_P2;PMS_P1;PMS_P2;Temp;Humidity;BMP_temperature;BMP_pressure;BME280_temperature;BME280_humidity;BME280_pressure;Samples;Min_cycle;Max_cycle;Signal;HPM_P1;HPM_P2
2023/08/11 00:00:23;;;;;;;7.07;5.90;;;;;;;-145.18;100.00;46658.44;5032441;28;20064;-62
2023/08/11 00:02:52;;;;;;;9.60;6.27;;;;;;;-145.18;100.00;46658.44;5032320;28;20040;-63
2023/08/11 00:05:20;;;;;;;7.63;5.90;;;;;;;-145.18;100.00;46656.50;5032172;28;20468;-63
2023/08/11 00:07:50;;;;;;;7.20;5.70;;;;;;;-145.18;100.00;46654.53;5032160;28;20037;-64
2023/08/11 00:10:19;;;;;;;13.50;5.80;;;;;;;-145.18;100.00;46648.69;5031734;28;20400;-63
2023/08/11 00:12:45;;;;;;;12.30;6.17;;;;;;;-145.18;100.00;46654.53;5031955;28;20060;-63
2023/08/11 00:15:12;;;;;;;9.60;6.60;;;;;;;-145.18;100.00;46652.59;5031999;28;20056;-63
2023/08/11 00:17:38;;;;;;;9.97;6.27;;;;;;;-145.18;100.00;46648.69;5031675;28;20077;-63
2023/08/11 00:20:06;;;;;;;8.27;5.87;;;;;;;-145.18;100.00;46652.59;5031775;28;20021;-63
2023/08/11 00:22:32;;;;;;;9.20;6.40;;;;;;;-145.18;100.00;46656.50;5031989;28;20485;-63
2023/08/11 00:24:57;;;;;;;8.57;5.93;;;;;;;-145.18;100.00;46652.59;5031863;28;20366;-63
2023/08/11 00:27:25;;;;;;;9.93;6.50;;;;;;;-145.18;100.00;46656.50;5032104;28;20060;-63
2023/08/11 00:55:23;;;;;;;9.07;6.77;;;;;;;-145.18;100.00;46646.72;5028728;28;20120;-60
2023/08/11 00:58:07;;;;;;;7.15;6.45;;;;;;;-145.18;100.00;46642.81;5047963;28;20067;-60
2023/08/11 01:00:33;;;;;;;10.67;6.93;;;;;;;-145.18;100.00;46644.78;5048257;28;20040;-60
2023/08/11 01:02:58;;;;;;;9.63;6.67;;;;;;;-145.18;100.00;46652.59;5048391;28;20099;-60
2023/08/11 01:05:28;;;;;;;8.63;6.40;;;;;;;-145.18;100.00;46648.69;5046383;28;20055;-60
2023/08/11 01:08:16;;;;;;;10.00;6.40;;;;;;;-145.18;100.00;46644.78;5047767;28;20141;-60
2023/08/11 01:11:19;;;;;;;8.93;5.83;;;;;;;-145.18;100.00;46644.78;5044893;28;20106;-60
2023/08/11 01:13:52;;;;;;;8.73;6.20;;;;;;;-145.18;100.00;46646.72;5007920;28;20112;-60
2023/08/11 01:16:19;;;;;;;9.20;6.33;;;;;;;-145.18;100.00;46648.69;5047953;28;20036;-60
2023/08/11 01:18:45;;;;;;;11.60;6.90;;;;;;;-145.18;100.00;46640.88;5048002;28;20163;-60
2023/08/11 01:21:13;;;;;;;11.03;7.13;;;;;;;-145.18;100.00;46646.72;5047883;28;20120;-60
2023/08/11 01:23:40;;;;;;;10.23;6.80;;;;;;;-145.18;100.00;46642.81;5046802;28;20045;-60
2023/08/11 01:26:06;;;;;;;10.60;5.90;;;;;;;-145.18;100.00;46640.88;5047709;28;20029;-60
2023/08/11 01:28:34;;;;;;;12.70;5.93;;;;;;;-145.18;100.00;46642.81;5041196;28;20040;-60
2023/08/11 01:30:59;;;;;;;8.77;6.97;;;;;;;-145.18;100.00;46646.72;5030825;28;20044;-60
2023/08/11 01:33:24;;;;;;;11.07;6.97;;;;;;;-145.18;100.00;46638.91;5030237;28;20033;-59
2023/08/11 01:35:50;;;;;;;8.13;6.60;;;;;;;-145.18;100.00;46642.81;5030529;28;20029;-60
2023/08/11 01:38:15;;;;;;;9.50;6.57;;;;;;;-145.18;100.00;46648.69;5029771;28;20272;-60
2023/08/11 01:40:40;;;;;;;13.20;6.77;;;;;;;-145.18;100.00;46646.72;5029074;28;20037;-60
2023/08/11 01:43:08;;;;;;;9.53;7.07;;;;;;;-145.18;100.00;46644.78;5031178;28;20065;-60
2023/08/11 01:45:34;;;;;;;12.67;6.30;;;;;;;-145.18;100.00;46648.69;5030698;28;20095;-60
2023/08/11 01:48:01;;;;;;;12.20;6.73;;;;;;;-145.18;100.00;46644.78;5030301;28;20488;-60
2023/08/11 01:50:28;;;;;;;11.33;6.43;;;;;;;-145.18;100.00;46646.72;5030604;28;20032;-63
2023/08/11 01:52:54;;;;;;;9.03;6.67;;;;;;;-145.18;100.00;46644.78;5030541;28;20103;-63
2023/08/11 01:55:20;;;;;;;12.23;7.23;;;;;;;-145.18;100.00;46648.69;5030465;28;20540;-63
2023/08/11 01:57:46;;;;;;;9.30;7.10;;;;;;;-145.18;100.00;46646.72;5030249;28;20033;-63
2023/08/11 02:00:16;;;;;;;10.07;6.97;;;;;;;-145.18;100.00;46642.81;5030477;28;20029;-63
2023/08/11 02:02:44;;;;;;;9.83;7.40;;;;;;;-145.18;100.00;46642.81;5030486;28;20025;-63
2023/08/11 02:05:15;;;;;;;9.60;7.20;;;;;;;-145.18;100.00;46642.81;5029868;28;20517;-63
2023/08/11 02:07:42;;;;;;;8.10;6.37;;;;;;;-145.18;100.00;46640.88;5029713;28;20121;-63
2023/08/11 02:10:09;;;;;;;11.97;6.97;;;;;;;-145.18;100.00;46644.78;5029930;28;20022;-63
2023/08/11 02:12:39;;;;;;;10.77;6.80;;;;;;;-145.18;100.00;46644.78;5029762;28;20017;-63
2023/08/11 02:15:05;;;;;;;10.13;6.83;;;;;;;-145.18;100.00;46652.59;5029430;28;20440;-63
2023/08/11 02:17:31;;;;;;;9.20;6.60;;;;;;;-145.18;100.00;46644.78;5028060;28;20045;-63
2023/08/11 02:19:58;;;;;;;9.70;6.67;;;;;;;-145.18;100.00;46642.81;5017591;28;20484;-62
2023/08/11 02:22:23;;;;;;;8.10;6.27;;;;;;;-145.18;100.00;46642.81;5029767;28;20043;-62
2023/08/11 02:24:48;;;;;;;8.23;6.70;;;;;;;-145.18;100.00;46677.97;5024489;28;20033;-63
2023/08/11 02:27:14;;;;;;;9.30;6.80;;;;;;;-145.18;100.00;46642.81;5029809;28;20470;-63
2023/08/11 02:29:39;;;;;;;12.53;7.43;;;;;;;-145.18;100.00;46638.91;5029602;28;20274;-63
2023/08/11 02:32:05;;;;;;;10.13;7.97;;;;;;;-145.18;100.00;46660.41;5030186;28;20030;-63
2023/08/11 02:34:30;;;;;;;10.60;7.57;;;;;;;-145.18;100.00;46677.97;5032835;28;20117;-63
2023/08/11 02:36:56;;;;;;;11.07;7.27;;;;;;;-145.18;100.00;46677.97;5033900;28;20483;-62
2023/08/11 02:39:22;;;;;;;10.13;7.30;;;;;;;-145.18;100.00;46660.41;5033887;28;20037;-63
2023/08/11 02:41:47;;;;;;;10.07;7.90;;;;;;;-145.18;100.00;46676.03;5034223;28;20036;-63
2023/08/11 02:44:13;;;;;;;11.80;7.87;;;;;;;-145.18;100.00;46660.41;5033582;28;20076;-63
2023/08/11 02:46:38;;;;;;;10.90;6.90;;;;;;;-145.18;100.00;46660.41;5033623;28;20021;-63
2023/08/11 02:49:04;;;;;;;10.13;7.73;;;;;;;-145.18;100.00;46660.41;5032181;28;20033;-63
2023/08/11 02:51:29;;;;;;;13.97;7.63;;;;;;;-145.18;100.00;46677.97;5033740;28;20109;-63
2023/08/11 02:53:54;;;;;;;11.27;7.30;;;;;;;-145.18;100.00;46640.88;5032968;28;20021;-63
2023/08/11 02:56:21;;;;;;;10.53;7.83;;;;;;;-145.18;100.00;46642.81;5033446;28;20037;-62
2023/08/11 02:58:46;;;;;;;12.23;8.03;;;;;;;-145.18;100.00;46677.97;5033668;28;20116;-63
2023/08/11 03:01:11;;;;;;;14.63;8.53;;;;;;;-145.18;100.00;46638.91;5033461;28;20800;-60
2023/08/11 03:03:37;;;;;;;11.37;8.43;;;;;;;-145.18;100.00;46676.03;5033594;28;20108;-59
2023/08/11 03:06:04;;;;;;;13.10;9.37;;;;;;;-145.18;100.00;46640.88;5032180;28;20038;-60
2023/08/11 03:08:30;;;;;;;12.17;8.00;;;;;;;-145.18;100.00;46677.97;5032319;28;20032;-60
2023/08/11 03:10:55;;;;;;;11.70;8.60;;;;;;;-145.18;100.00;46640.88;5033805;28;20033;-60
2023/08/11 03:13:21;;;;;;;11.70;8.87;;;;;;;-145.18;100.00;46640.88;5033408;28;20105;-60
2023/08/11 03:15:46;;;;;;;10.47;8.67;;;;;;;-145.18;100.00;46638.91;5033426;28;20047;-60
2023/08/11 03:18:12;;;;;;;12.53;8.50;;;;;;;-145.18;100.00;46660.41;5031135;28;20650;-60
2023/08/11 03:20:38;;;;;;;10.57;8.10;;;;;;;-145.18;100.00;46677.97;5032296;28;20037;-60
2023/08/11 03:23:04;;;;;;;14.00;9.30;;;;;;;-145.18;100.00;46676.03;5033242;28;20041;-60
2023/08/11 03:25:30;;;;;;;13.27;8.33;;;;;;;-145.18;100.00;46640.88;5032654;28;20039;-60
2023/08/11 03:27:56;;;;;;;11.70;8.73;;;;;;;-145.18;100.00;46677.97;5032934;28;20105;-60
2023/08/11 03:30:22;;;;;;;12.93;8.93;;;;;;;-145.18;100.00;46638.91;5033152;28;20025;-60
2023/08/11 03:32:48;;;;;;;12.10;8.70;;;;;;;-145.18;100.00;46642.81;5032840;28;20453;-60
2023/08/11 03:35:13;;;;;;;13.50;9.37;;;;;;;-145.18;100.00;46638.91;5033142;28;20030;-60
2023/08/11 03:37:39;;;;;;;15.43;8.67;;;;;;;-145.18;100.00;46640.88;5030883;28;20026;-60
2023/08/11 03:40:12;;;;;;;13.27;9.37;;;;;;;-145.18;100.00;46638.91;5033232;28;20385;-59
2023/08/11 03:42:38;;;;;;;16.17;10.33;;;;;;;-145.18;100.00;46638.91;5032775;28;20499;-60
2023/08/11 03:45:04;;;;;;;13.03;9.70;;;;;;;-145.18;100.00;46640.88;5031135;28;20025;-60
2023/08/11 03:47:30;;;;;;;15.07;8.73;;;;;;;-145.18;100.00;46636.94;5030539;28;20067;-60
2023/08/11 03:49:55;;;;;;;12.10;9.10;;;;;;;-145.18;100.00;46636.94;5032298;28;20029;-60
2023/08/11 03:52:20;;;;;;;13.30;10.00;;;;;;;-145.18;100.00;46677.97;5032926;28;20078;-60
2023/08/11 03:54:46;;;;;;;11.43;9.03;;;;;;;-145.18;100.00;46638.91;5032733;28;20523;-60
2023/08/11 03:57:11;;;;;;;13.67;9.70;;;;;;;-145.18;100.00;46638.91;5032204;28;20030;-60
2023/08/11 03:59:36;;;;;;;13.97;9.70;;;;;;;-145.18;100.00;46638.91;5033004;28;20045;-60
2023/08/11 04:02:02;;;;;;;12.70;9.00;;;;;;;-145.18;100.00;46660.41;5032344;28;20025;-60
2023/08/11 04:04:27;;;;;;;15.23;9.07;;;;;;;-145.18;100.00;46660.41;5032271;28;20052;-60
2023/08/11 04:06:52;;;;;;;16.07;9.87;;;;;;;-145.18;100.00;46636.94;5031797;28;20044;-60
2023/08/11 04:09:18;;;;;;;12.23;9.27;;;;;;;-145.18;100.00;46638.91;5032477;28;20172;-60
2023/08/11 04:11:44;;;;;;;12.90;9.57;;;;;;;-145.18;100.00;46660.41;5032353;28;20112;-63
2023/08/11 04:14:10;;;;;;;16.63;10.10;;;;;;;-145.18;100.00;46638.91;5030734;28;20453;-63
2023/08/11 04:16:35;;;;;;;13.10;9.33;;;;;;;-145.18;100.00;46676.03;5030297;28;20026;-63
2023/08/11 04:19:00;;;;;;;12.47;9.33;;;;;;;-145.18;100.00;46676.03;5031776;28;20397;-63
2023/08/11 04:21:27;;;;;;;13.53;10.20;;;;;;;-145.18;100.00;46636.94;5032251;28;20120;-63
2023/08/11 04:23:53;;;;;;;12.23;9.60;;;;;;;-145.18;100.00;46660.41;5032022;28;20029;-63
2023/08/11 04:26:18;;;;;;;18.33;10.27;;;;;;;-145.18;100.00;46636.94;5031523;28;20167;-63
2023/08/11 04:28:43;;;;;;;14.23;9.87;;;;;;;-145.18;100.00;46636.94;5032201;28;20029;-63
2023/08/11 04:31:09;;;;;;;15.20;10.47;;;;;;;-145.18;100.00;46636.94;5031715;28;20540;-63
2023/08/11 04:33:35;;;;;;;16.17;10.20;;;;;;;-145.18;100.00;46660.41;5046953;28;20048;-64
2023/08/11 04:36:02;;;;;;;15.77;9.70;;;;;;;-145.18;100.00;46636.94;5031465;28;20018;-63
2023/08/11 04:38:30;;;;;;;13.87;9.97;;;;;;;-145.18;100.00;46636.94;5030402;28;20108;-63
2023/08/11 04:40:57;;;;;;;17.77;9.90;;;;;;;-145.18;100.00;46638.91;5031778;28;20017;-63
2023/08/11 04:43:22;;;;;;;15.03;10.17;;;;;;;-145.18;100.00;46636.94;5031773;28;20035;-63
2023/08/11 04:45:49;;;;;;;12.23;9.57;;;;;;;-145.18;100.00;46638.91;5031075;28;20459;-63
2023/08/11 04:48:14;;;;;;;18.90;9.90;;;;;;;-145.18;100.00;46636.94;5026338;28;20022;-63
2023/08/11 04:50:40;;;;;;;16.03;10.60;;;;;;;-145.18;100.00;46638.91;5030867;28;20029;-63
2023/08/11 04:53:05;;;;;;;18.47;10.33;;;;;;;-145.18;100.00;46640.88;5034332;28;20052;-63
2023/08/11 04:55:31;;;;;;;14.83;10.50;;;;;;;-145.18;100.00;46640.88;5031372;28;20029;-63
2023/08/11 04:57:56;;;;;;;21.87;10.67;;;;;;;-145.18;100.00;46638.91;5030155;28;20404;-64
2023/08/11 05:00:22;;;;;;;15.40;9.97;;;;;;;-145.18;100.00;46640.88;5029607;28;20108;-63
2023/08/11 05:02:48;;;;;;;13.97;9.93;;;;;;;-145.18;100.00;46636.94;5031124;28;20028;-63
2023/08/11 05:05:13;;;;;;;16.73;10.60;;;;;;;-145.18;100.00;46638.91;5029976;28;20032;-63
2023/08/11 05:07:39;;;;;;;15.20;10.83;;;;;;;-145.18;100.00;46638.91;5031158;28;20049;-63
2023/08/11 05:10:05;;;;;;;16.30;10.50;;;;;;;-145.18;100.00;46636.94;5030601;28;20390;-63
2023/08/11 05:12:30;;;;;;;18.63;12.37;;;;;;;-145.18;100.00;46640.88;5025796;28;20530;-63
2023/08/11 05:14:56;;;;;;;13.90;10.33;;;;;;;-145.18;100.00;46640.88;5026389;28;20497;-63
2023/08/11 05:17:21;;;;;;;14.97;10.67;;;;;;;-145.18;100.00;46644.78;5025958;28;20026;-63
2023/08/11 05:19:47;;;;;;;17.13;10.87;;;;;;;-145.18;100.00;46638.91;5028560;28;20128;-63
2023/08/11 05:22:12;;;;;;;19.23;12.43;;;;;;;-145.18;100.00;46636.94;5024517;28;20041;-63
2023/08/11 05:24:38;;;;;;;15.20;11.13;;;;;;;-145.18;100.00;46642.81;5030600;28;20034;-63
2023/08/11 05:27:05;;;;;;;14.67;11.37;;;;;;;-145.18;100.00;46633.06;5025526;28;20072;-63
2023/08/11 05:29:31;;;;;;;17.80;12.63;;;;;;;-145.18;100.00;46638.91;5020820;28;20034;-63
2023/08/11 05:31:56;;;;;;;18.43;12.30;;;;;;;-145.18;100.00;46640.88;5030807;28;20025;-63
2023/08/11 05:34:22;;;;;;;16.70;11.50;;;;;;;-145.18;100.00;46638.91;5029177;28;20112;-63
2023/08/11 05:36:48;;;;;;;17.87;12.23;;;;;;;-145.18;100.00;46638.91;5030328;28;20036;-64
2023/08/11 05:39:13;;;;;;;17.73;12.20;;;;;;;-145.18;100.00;46635.00;5030303;28;20041;-63
2023/08/11 05:41:39;;;;;;;14.63;10.90;;;;;;;-145.18;100.00;46631.09;5030781;28;20725;-63
2023/08/11 05:44:05;;;;;;;18.70;11.83;;;;;;;-145.18;100.00;46636.94;5045399;28;20021;-63
2023/08/11 05:46:31;;;;;;;19.03;11.63;;;;;;;-145.18;100.00;46635.00;5028847;28;20037;-64
2023/08/11 05:48:56;;;;;;;22.13;13.47;;;;;;;-145.18;100.00;46636.94;5030490;28;20031;-63
2023/08/11 05:51:22;;;;;;;15.70;12.00;;;;;;;-145.18;100.00;46633.06;5030615;28;20629;-62
2023/08/11 05:53:47;;;;;;;18.00;12.00;;;;;;;-145.18;100.00;46635.00;5030354;28;20072;-63
2023/08/11 05:56:12;;;;;;;18.10;12.10;;;;;;;-145.18;100.00;46633.06;5029939;28;20029;-63
2023/08/11 05:58:38;;;;;;;21.27;12.20;;;;;;;-145.18;100.00;46633.06;5029815;28;20107;-63
2023/08/11 06:01:03;;;;;;;17.57;12.43;;;;;;;-145.18;100.00;46633.06;5022313;28;20117;-63
2023/08/11 06:03:30;;;;;;;19.93;12.43;;;;;;;-145.18;100.00;46633.06;5030144;28;20619;-63
2023/08/11 06:06:04;;;;;;;18.27;11.60;;;;;;;-145.18;100.00;46636.94;5029412;28;20535;-63
2023/08/11 06:08:30;;;;;;;18.77;12.70;;;;;;;-145.18;100.00;46636.94;5029548;28;20079;-63
2023/08/11 06:10:55;;;;;;;30.97;11.97;;;;;;;-145.18;100.00;46635.00;5030077;28;20048;-63
2023/08/11 06:13:22;;;;;;;16.30;12.33;;;;;;;-145.18;100.00;46633.06;5025767;28;20079;-64
2023/08/11 06:15:49;;;;;;;16.17;11.57;;;;;;;-145.18;100.00;46633.06;5028883;28;20029;-63
2023/08/11 06:18:14;;;;;;;15.17;11.27;;;;;;;-145.18;100.00;46640.88;5028506;28;20464;-63
2023/08/11 06:20:41;;;;;;;20.93;12.10;;;;;;;-145.18;100.00;46638.91;5024933;28;20100;-63
2023/08/11 06:23:07;;;;;;;17.63;12.23;;;;;;;-145.18;100.00;46638.91;5029482;28;20049;-63
2023/08/11 06:25:33;;;;;;;20.40;12.40;;;;;;;-145.18;100.00;46638.91;5029353;28;20029;-64
2023/08/11 06:27:58;;;;;;;17.17;11.70;;;;;;;-145.18;100.00;46640.88;5040112;28;20026;-63
2023/08/11 06:30:23;;;;;;;15.97;11.67;;;;;;;-145.18;100.00;46642.81;5029975;28;20121;-60
2023/08/11 06:32:49;;;;;;;16.17;10.87;;;;;;;-145.18;100.00;46642.81;5026494;28;20455;-60
2023/08/11 06:35:14;;;;;;;17.87;11.07;;;;;;;-145.18;100.00;46638.91;5027312;28;20041;-60
2023/08/11 06:37:39;;;;;;;16.93;12.17;;;;;;;-145.18;100.00;46638.91;5018896;28;20117;-61
2023/08/11 06:40:06;;;;;;;18.83;11.53;;;;;;;-145.18;100.00;46642.81;5030094;28;20060;-60
2023/08/11 06:42:31;;;;;;;15.37;11.37;;;;;;;-145.18;100.00;46642.81;5045617;28;20045;-60
2023/08/11 06:44:57;;;;;;;17.10;11.47;;;;;;;-145.18;100.00;46642.81;5023004;28;20091;-60
2023/08/11 06:47:23;;;;;;;18.60;10.53;;;;;;;-145.18;100.00;46642.81;5029746;28;20040;-60
2023/08/11 06:49:49;;;;;;;18.97;10.77;;;;;;;-145.18;100.00;46640.88;5029565;28;20041;-60
2023/08/11 06:52:14;;;;;;;17.80;10.27;;;;;;;-145.18;100.00;46642.81;5029715;28;20044;-60
2023/08/11 06:54:40;;;;;;;16.40;10.87;;;;;;;-145.18;100.00;46644.78;5029173;28;20053;-60
2023/08/11 06:57:06;;;;;;;15.20;10.23;;;;;;;-145.18;100.00;46640.88;5029448;28;20065;-60
2023/08/11 06:59:31;;;;;;;18.47;10.53;;;;;;;-145.18;100.00;46644.78;5029561;28;20053;-60
2023/08/11 07:01:57;;;;;;;12.90;9.73;;;;;;;-145.18;100.00;46642.81;5029343;28;20087;-60
2023/08/11 07:04:23;;;;;;;16.83;9.80;;;;;;;-145.18;100.00;46644.78;5029551;28;20025;-60
2023/08/11 07:06:48;;;;;;;16.53;9.27;;;;;;;-145.18;100.00;46644.78;5029192;28;20029;-60
2023/08/11 07:09:13;;;;;;;14.17;9.80;;;;;;;-145.18;100.00;46640.88;5027988;28;20029;-60
2023/08/11 07:11:39;;;;;;;14.13;9.13;;;;;;;-145.18;100.00;46646.72;5029606;28;20099;-60
2023/08/11 07:14:05;;;;;;;16.53;9.17;;;;;;;-145.18;100.00;46648.69;5027703;28;20683;-61
2023/08/11 07:16:30;;;;;;;15.77;9.47;;;;;;;-145.18;100.00;46642.81;5027885;28;20037;-61
2023/08/11 07:18:56;;;;;;;14.53;8.87;;;;;;;-145.18;100.00;46650.63;5029058;28;20053;-60
2023/08/11 07:21:21;;;;;;;13.73;8.23;;;;;;;-145.18;100.00;46652.59;5029793;28;20033;-60
2023/08/11 07:23:47;;;;;;;13.40;8.37;;;;;;;-145.18;100.00;46652.59;5029928;28;20457;-61
2023/08/11 07:26:12;;;;;;;12.43;8.10;;;;;;;-145.18;100.00;46650.63;5031104;28;20045;-60
2023/08/11 07:28:38;;;;;;;12.03;8.20;;;;;;;-145.18;100.00;46656.50;5030210;28;20017;-60
2023/08/11 07:31:03;;;;;;;13.23;8.23;;;;;;;-145.18;100.00;46654.53;5031535;28;20092;-60
2023/08/11 07:33:29;;;;;;;14.57;7.73;;;;;;;-145.18;100.00;46654.53;5027493;28;20069;-60
2023/08/11 07:35:54;;;;;;;11.00;7.43;;;;;;;-145.18;100.00;46660.41;5030551;28;20053;-61
2023/08/11 07:38:20;;;;;;;9.87;7.53;;;;;;;-145.18;100.00;46666.25;5032461;28;20426;-60
2023/08/11 07:40:48;;;;;;;14.17;7.47;;;;;;;-145.18;100.00;46656.50;5029205;28;20428;-61
2023/08/11 07:43:14;;;;;;;12.10;7.77;;;;;;;-145.18;100.00;46664.31;5032197;28;20033;-60
2023/08/11 07:45:39;;;;;;;11.53;7.33;;;;;;;-145.18;100.00;46666.25;5029330;28;20116;-60
2023/08/11 07:48:06;;;;;;;11.57;6.63;;;;;;;-145.18;100.00;46670.16;5032095;28;20108;-61
2023/08/11 07:50:32;;;;;;;14.17;7.03;;;;;;;-145.18;100.00;46668.22;5020516;28;20022;-60
2023/08/11 07:52:58;;;;;;;8.93;6.87;;;;;;;-145.18;100.00;46670.16;5032052;28;20060;-60
2023/08/11 07:55:23;;;;;;;16.00;7.50;;;;;;;-145.18;100.00;46672.13;5030871;28;20049;-60
2023/08/11 07:57:49;;;;;;;12.33;7.00;;;;;;;-145.18;100.00;46662.34;5027353;28;20029;-61
2023/08/11 08:00:16;;;;;;;10.70;6.47;;;;;;;-145.18;100.00;46666.25;5031876;28;20029;-60
2023/08/11 08:02:43;;;;;;;14.83;6.37;;;;;;;-145.18;100.00;46677.97;5032379;28;20044;-61
2023/08/11 08:05:09;;;;;;;9.90;5.90;;;;;;;-145.18;100.00;46672.13;5031950;28;20112;-61
2023/08/11 08:07:35;;;;;;;11.20;6.17;;;;;;;-145.18;100.00;46676.03;5031499;28;20108;-60
2023/08/11 08:10:00;;;;;;;8.93;6.03;;;;;;;-145.18;100.00;46674.06;5031670;28;20481;-60
2023/08/11 08:12:26;;;;;;;8.37;5.77;;;;;;;-145.18;100.00;46672.13;5031765;28;20033;-60
2023/08/11 08:14:51;;;;;;;8.90;5.83;;;;;;;-145.18;100.00;46674.06;5029545;28;20117;-60
2023/08/11 08:17:18;;;;;;;10.10;6.40;;;;;;;-145.18;100.00;46664.31;5030346;28;20129;-60
2023/08/11 08:19:43;;;;;;;9.37;4.80;;;;;;;-145.18;100.00;46617.41;5029703;28;20052;-60
2023/08/11 08:22:08;;;;;;;8.07;5.13;;;;;;;-145.18;100.00;46636.94;5031204;28;20029;-60
2023/08/11 08:24:34;;;;;;;6.93;4.97;;;;;;;-145.18;100.00;46623.28;5027534;28;20614;-61
2023/08/11 08:26:59;;;;;;;10.37;4.93;;;;;;;-145.18;100.00;46672.13;5034419;28;20032;-60
2023/08/11 08:29:25;;;;;;;8.67;5.03;;;;;;;-145.18;100.00;46633.06;4996024;28;20026;-60
2023/08/11 08:31:50;;;;;;;11.00;5.60;;;;;;;-145.18;100.00;46576.41;5027841;28;20026;-61
2023/08/11 08:34:16;;;;;;;7.20;4.90;;;;;;;-145.18;100.00;46545.16;5027206;28;20208;-61
2023/08/11 08:36:41;;;;;;;8.10;4.90;;;;;;;-145.18;100.00;46541.25;5027751;28;20051;-61
2023/08/11 08:39:07;;;;;;;6.25;4.65;;;;;;;-145.18;100.00;46547.09;5031065;28;20037;-61
2023/08/11 08:41:37;;;;;;;7.28;4.30;;;;;;;-145.18;100.00;46551.00;5031744;28;20036;-61
2023/08/11 08:44:03;;;;;;;7.00;3.70;;;;;;;-145.18;100.00;46547.09;5030087;28;20025;-64
2023/08/11 08:46:31;;;;;;;6.93;4.22;;;;;;;-145.18;100.00;46551.00;5031623;28;20030;-61
2023/08/11 08:49:02;;;;;;;6.57;3.92;;;;;;;-145.18;100.00;46545.16;5031658;28;20021;-61
2023/08/11 08:51:29;;;;;;;15.60;3.80;;;;;;;-145.18;100.00;46537.34;5031499;28;20094;-61
2023/08/11 08:53:54;;;;;;;7.35;3.88;;;;;;;-145.18;100.00;46529.53;5031321;28;20055;-61
2023/08/11 08:56:20;;;;;;;7.05;3.55;;;;;;;-145.18;100.00;46533.44;5031143;28;20045;-61
2023/08/11 08:58:46;;;;;;;6.15;3.50;;;;;;;-145.18;100.00;46539.28;5031674;28;20060;-61
2023/08/11 09:01:13;;;;;;;9.70;4.00;;;;;;;-145.18;100.00;46537.34;5030338;28;20037;-61
2023/08/11 09:03:39;;;;;;;8.25;3.88;;;;;;;-145.18;100.00;46531.47;5031189;28;20040;-60
2023/08/11 09:06:05;;;;;;;10.20;4.07;;;;;;;-145.18;100.00;46545.16;5026377;28;20056;-61
2023/08/11 09:08:32;;;;;;;8.25;3.90;;;;;;;-145.18;100.00;46545.16;5033850;28;20037;-61
2023/08/11 09:10:57;;;;;;;4.40;3.60;;;;;;;-145.18;100.00;46535.38;5030697;28;20029;-61
2023/08/11 09:13:26;;;;;;;6.97;4.20;;;;;;;-145.18;100.00;46535.38;5033856;28;20037;-61
2023/08/11 09:15:51;;;;;;;9.48;3.97;;;;;;;-145.18;100.00;46551.00;5030724;28;20079;-60
2023/08/11 09:18:16;;;;;;;4.88;3.17;;;;;;;-145.18;100.00;46533.44;5030259;28;20060;-61
2023/08/11 09:20:46;;;;;;;9.05;4.25;;;;;;;-145.18;100.00;46535.38;5031113;28;20034;-61
2023/08/11 09:23:11;;;;;;;6.93;3.60;;;;;;;-145.18;100.00;46545.16;5033743;28;20026;-61
2023/08/11 09:25:36;;;;;;;9.15;3.70;;;;;;;-145.18;100.00;46547.09;5007420;28;20041;-61
2023/08/11 09:28:02;;;;;;;7.40;3.17;;;;;;;-145.18;100.00;46554.91;5030913;28;20589;-61
2023/08/11 09:30:31;;;;;;;6.97;3.50;;;;;;;-145.18;100.00;46551.00;5030670;28;20037;-61
2023/08/11 09:32:59;;;;;;;6.15;3.45;;;;;;;-145.18;100.00;46551.00;5033262;28;20025;-61
2023/08/11 09:35:25;;;;;;;7.07;3.40;;;;;;;-145.18;100.00;46535.38;5018834;28;20029;-61
2023/08/11 09:37:54;;;;;;;6.32;4.05;;;;;;;-145.18;100.00;46539.28;5030703;28;20033;-61
2023/08/11 09:40:21;;;;;;;5.25;3.38;;;;;;;-145.18;100.00;46539.28;5029436;28;20022;-61
2023/08/11 09:42:46;;;;;;;6.88;3.60;;;;;;;-145.18;100.00;46662.34;5027130;28;20029;-59
2023/08/11 09:45:12;;;;;;;6.90;3.45;;;;;;;-145.18;100.00;46961.22;5020491;28;20038;-61
2023/08/11 09:47:37;;;;;;;8.65;3.55;;;;;;;-145.18;100.00;47097.97;5027924;28;20091;-61
2023/08/11 09:50:03;;;;;;;6.47;3.50;;;;;;;-145.18;100.00;47062.81;5024667;28;20108;-61
2023/08/11 09:52:33;;;;;;;7.10;3.47;;;;;;;-145.18;100.00;47109.69;5020254;28;20025;-61
2023/08/11 09:54:59;;;;;;;8.70;3.45;;;;;;;-145.18;100.00;47107.72;5016637;28;20030;-61
2023/08/11 09:57:26;;;;;;;8.02;4.05;;;;;;;-145.18;100.00;47035.44;5014050;28;20040;-61
2023/08/11 09:59:53;;;;;;;7.60;3.65;;;;;;;-145.18;100.00;47043.28;5022930;28;20096;-61
2023/08/11 10:02:22;;;;;;;5.55;3.80;;;;;;;-145.18;100.00;47047.19;5020620;28;20040;-61
2023/08/11 10:04:56;;;;;;;7.95;3.13;;;;;;;-145.18;100.00;47088.19;5028336;28;20040;-61
2023/08/11 10:07:27;;;;;;;7.35;3.50;;;;;;;-145.18;100.00;47086.25;5027802;28;20030;-61
2023/08/11 10:09:53;;;;;;;7.65;4.05;;;;;;;-145.18;100.00;47039.34;5028820;28;20041;-61
2023/08/11 10:12:19;;;;;;;9.52;3.88;;;;;;;-145.18;100.00;47047.19;5028195;28;20082;-61
2023/08/11 10:14:45;;;;;;;7.57;4.03;;;;;;;-145.18;100.00;47062.81;5035053;28;20027;-61
2023/08/11 10:17:12;;;;;;;4.47;3.92;;;;;;;-145.18;100.00;47010.06;5029827;28;20481;-61
2023/08/11 10:19:38;;;;;;;5.55;3.33;;;;;;;-145.18;100.00;47013.97;5029609;28;20050;-60
2023/08/11 10:22:04;;;;;;;6.93;3.55;;;;;;;-145.18;100.00;47015.91;5027604;28;20044;-61
2023/08/11 10:24:30;;;;;;;5.80;3.83;;;;;;;-145.18;100.00;47013.97;5029770;28;20132;-61
2023/08/11 10:26:55;;;;;;;7.85;4.32;;;;;;;-145.18;100.00;47070.63;5029308;28;20354;-61
2023/08/11 10:29:21;;;;;;;7.53;3.78;;;;;;;-145.18;100.00;46996.38;5029571;28;20037;-61
2023/08/11 10:31:57;;;;;;;9.50;4.00;;;;;;;-145.18;100.00;46994.44;5029920;28;20108;-61
2023/08/11 10:34:24;;;;;;;6.78;4.47;;;;;;;-145.18;100.00;46967.09;5023929;28;20033;-61
2023/08/11 10:36:53;;;;;;;6.30;3.92;;;;;;;-145.18;100.00;46976.84;5026904;28;20048;-61
2023/08/11 10:39:20;;;;;;;11.15;5.57;;;;;;;-145.18;100.00;46967.09;5029203;28;20029;-61
2023/08/11 10:41:46;;;;;;;7.35;5.40;;;;;;;-145.18;100.00;46982.72;5028827;28;20029;-61
2023/08/11 10:44:12;;;;;;;7.25;4.82;;;;;;;-145.18;100.00;46988.56;5029175;28;20036;-61
2023/08/11 10:46:38;;;;;;;11.95;5.20;;;;;;;-145.18;100.00;46974.91;5017330;28;20401;-59
2023/08/11 10:49:03;;;;;;;7.03;4.90;;;;;;;-145.18;100.00;46953.41;5023932;28;20469;-61
2023/08/11 10:51:31;;;;;;;7.78;4.55;;;;;;;-145.18;100.00;46931.91;5024005;28;20034;-60
2023/08/11 10:54:02;;;;;;;6.07;4.72;;;;;;;-145.18;100.00;46949.50;5027141;28;20099;-61
2023/08/11 10:56:30;;;;;;;10.93;4.45;;;;;;;-145.18;100.00;46945.59;5033209;28;20045;-61
2023/08/11 10:59:16;;;;;;;6.57;4.85;;;;;;;-145.18;100.00;46953.41;5020305;28;20492;-61
2023/08/11 11:01:45;;;;;;;;;;;;;;;-145.18;100.00;46957.31;5025936;28;20041;-61
2023/08/11 11:04:12;;;;;;;10.00;5.53;;;;;;;-145.18;100.00;46945.59;5028769;28;19913;-61
2023/08/11 11:06:39;;;;;;;6.95;4.30;;;;;;;-145.18;100.00;46941.69;5023376;28;20382;-61
2023/08/11 11:09:06;;;;;;;8.50;4.28;;;;;;;-145.18;100.00;46933.88;5029035;28;20025;-61
2023/08/11 11:11:32;;;;;;;8.98;3.80;;;;;;;-145.18;100.00;46933.88;5024338;28;20052;-63
2023/08/11 11:13:58;;;;;;;8.50;4.22;;;;;;;-145.18;100.00;46937.78;5032534;28;20436;-63
2023/08/11 11:16:23;;;;;;;6.93;4.15;;;;;;;-145.18;100.00;46949.50;5031587;28;20060;-63
2023/08/11 11:18:50;;;;;;;4.93;3.00;;;;;;;-145.18;100.00;46939.72;5027146;28;20096;-63
2023/08/11 11:21:17;;;;;;;6.45;4.05;;;;;;;-145.18;100.00;46945.59;5026380;28;20057;-63
2023/08/11 11:23:50;;;;;;;6.22;3.88;;;;;;;-145.18;100.00;46941.69;5032102;28;20112;-63